createdAt,value
2019-05-05T00:08:37.000Z,95.59
2019-05-05T00:11:26.509Z,95.33
2019-05-05T00:14:35.179Z,93.29
2019-05-05T00:19:54.978Z,91.83
2019-05-05T00:22:38.984Z,92.20
2019-05-05T00:25:28.762Z,91.39
2019-05-05T00:27:59.118Z,90.86
2019-05-05T00:30:29.499Z,91.24
2019-05-05T00:32:59.853Z,91.66
2019-05-05T00:35:30.237Z,91.98
2019-05-05T00:38:19.984Z,91.41
2019-05-05T00:40:50.384Z,91.08
2019-05-05T00:43:20.730Z,91.57
2019-05-05T00:49:11.966Z,91.87
2019-05-05T00:51:44.391Z,92.69
2019-05-05T00:54:26.429Z,92.17
2019-05-05T00:56:56.797Z,92.11
2019-05-05T01:02:29.224Z,92.30
2019-05-05T01:07:50.458Z,92.31
2019-05-05T01:10:20.800Z,91.87
2019-05-05T01:12:51.255Z,91.58
2019-05-05T01:15:21.609Z,92.25
2019-05-05T01:17:51.983Z,90.82
2019-05-05T01:20:41.758Z,91.00
2019-05-05T01:23:12.124Z,90.57
2019-05-05T01:26:01.872Z,90.83
2019-05-05T01:28:51.639Z,90.57
2019-05-05T01:34:38.033Z,90.79
2019-05-05T01:40:36.165Z,91.18
2019-05-05T01:43:06.624Z,90.31
2019-05-05T01:48:39.861Z,90.85
2019-05-05T01:51:29.704Z,91.54
2019-05-05T01:54:00.087Z,91.17
2019-05-05T01:56:30.439Z,91.49
2019-05-05T01:59:00.802Z,91.59
2019-05-05T02:01:31.154Z,92.32
2019-05-05T02:04:20.910Z,92.26
2019-05-05T02:06:51.255Z,92.27
2019-05-05T02:09:41.052Z,92.70
2019-05-05T02:12:11.391Z,92.95
2019-05-05T02:14:41.745Z,92.14
2019-05-05T02:17:14.228Z,91.68
2019-05-05T02:22:40.193Z,91.99
2019-05-05T02:25:29.968Z,92.22
2019-05-05T02:28:00.429Z,92.44
2019-05-05T02:31:09.086Z,92.11
2019-05-05T02:33:39.524Z,92.15
2019-05-05T02:36:09.919Z,91.68
2019-05-05T02:51:08.945Z,92.74
2019-05-05T03:02:51.135Z,92.71
2019-05-05T03:05:23.500Z,91.83
2019-05-05T03:08:38.700Z,91.80
2019-05-05T03:20:37.444Z,92.75
2019-05-05T03:26:08.547Z,92.99
2019-05-05T03:38:05.537Z,92.88
2019-05-05T03:49:24.901Z,92.53
2019-05-05T03:51:55.353Z,93.03
2019-05-05T03:54:25.721Z,92.64
2019-05-05T03:57:15.515Z,93.47
2019-05-05T04:03:26.303Z,94.05
2019-05-05T04:08:58.734Z,94.15
2019-05-05T04:11:29.112Z,94.32
2019-05-05T04:17:20.578Z,93.90
2019-05-05T04:20:21.747Z,93.81
2019-05-05T04:23:04.169Z,94.17
2019-05-05T04:25:35.046Z,94.17
2019-05-05T04:28:17.394Z,94.47
2019-05-05T04:30:47.800Z,94.29
2019-05-05T04:33:18.166Z,94.35
2019-05-05T04:35:48.526Z,94.46
2019-05-05T04:38:49.857Z,94.54
2019-05-05T04:41:20.201Z,94.54
2019-05-05T04:43:50.558Z,94.42
2019-05-05T04:46:33.854Z,93.97
2019-05-05T04:49:23.574Z,93.97
2019-05-05T04:54:51.318Z,93.47
2019-05-05T04:57:35.344Z,94.35
2019-05-05T05:03:45.913Z,93.82
2019-05-05T05:06:34.227Z,93.46
2019-05-05T05:09:18.791Z,93.46
2019-05-05T05:11:49.145Z,94.07
2019-05-05T05:14:30.962Z,93.97
2019-05-05T05:19:57.862Z,92.96
2019-05-05T05:22:28.213Z,92.96
2019-05-05T05:24:58.578Z,93.16
2019-05-05T05:27:40.690Z,92.80
2019-05-05T05:30:24.241Z,92.72
2019-05-05T05:32:54.680Z,92.72
2019-05-05T05:35:55.979Z,93.53
2019-05-05T05:38:37.884Z,93.93
2019-05-05T05:41:38.824Z,93.86
2019-05-05T05:44:28.245Z,93.86
2019-05-05T05:47:37.972Z,92.72
2019-05-05T05:50:24.577Z,92.85
2019-05-05T05:52:56.657Z,92.85
2019-05-05T05:55:27.019Z,92.97
2019-05-05T05:57:57.456Z,93.15
2019-05-05T06:00:41.685Z,92.71
2019-05-05T06:03:24.605Z,92.44
2019-05-05T06:05:55.061Z,92.44
2019-05-05T06:08:44.810Z,91.76
2019-05-05T06:11:54.221Z,92.38
2019-05-05T06:14:38.035Z,92.38
2019-05-05T06:17:08.423Z,92.25
2019-05-05T06:19:58.170Z,92.15
2019-05-05T06:22:47.921Z,92.21
2019-05-05T06:25:18.278Z,92.04
2019-05-05T06:27:48.618Z,92.44
2019-05-05T06:30:38.380Z,92.24
2019-05-05T06:33:08.786Z,92.02
2019-05-05T06:35:39.254Z,91.45
2019-05-05T06:38:09.751Z,91.45
2019-05-05T06:40:59.050Z,91.10
2019-05-05T06:44:00.265Z,91.62
2019-05-05T06:47:01.211Z,91.61
2019-05-05T06:49:31.565Z,91.61
2019-05-05T06:52:21.345Z,91.07
2019-05-05T06:55:03.784Z,90.80
2019-05-05T06:57:34.347Z,90.80
2019-05-05T07:00:25.632Z,91.35
2019-05-05T07:02:55.994Z,91.22
2019-05-05T07:05:26.427Z,91.21
2019-05-05T07:07:56.814Z,91.54
2019-05-05T07:10:46.589Z,91.56
2019-05-05T07:13:36.346Z,90.62
2019-05-05T07:16:06.746Z,89.89
2019-05-05T07:18:37.148Z,89.86
2019-05-05T07:21:26.967Z,89.41
2019-05-05T07:23:57.355Z,90.46
2019-05-05T07:26:27.741Z,89.58
2019-05-05T07:29:18.175Z,89.88
2019-05-05T07:32:09.327Z,89.90
2019-05-05T07:34:58.618Z,89.41
2019-05-05T07:37:29.130Z,89.74
2019-05-05T07:40:18.916Z,89.88
2019-05-05T07:42:49.303Z,89.92
2019-05-05T07:45:23.026Z,89.19
2019-05-05T07:47:57.177Z,89.06
2019-05-05T07:50:32.160Z,88.83
2019-05-05T07:53:18.968Z,89.14
2019-05-05T07:56:08.765Z,88.48
2019-05-05T08:01:49.096Z,88.34
2019-05-05T08:04:19.681Z,88.09
2019-05-05T08:06:50.172Z,88.16
2019-05-05T08:09:22.625Z,88.09
2019-05-05T08:11:58.231Z,88.81
2019-05-05T08:14:28.676Z,87.88
2019-05-05T08:17:17.934Z,87.68
2019-05-05T08:19:54.366Z,87.61
2019-05-05T08:22:24.664Z,87.04
2019-05-05T08:28:00.567Z,86.76
2019-05-05T08:31:09.255Z,87.63
2019-05-05T08:33:39.689Z,86.60
2019-05-05T08:36:10.162Z,86.49
2019-05-05T08:38:40.527Z,87.53
2019-05-05T08:41:10.939Z,87.32
2019-05-05T08:44:00.719Z,87.37
2019-05-05T08:46:31.104Z,86.94
2019-05-05T08:49:20.912Z,86.42
2019-05-05T08:51:51.342Z,86.12
2019-05-05T08:54:23.603Z,86.45
2019-05-05T08:57:05.886Z,86.49
2019-05-05T08:59:55.695Z,87.34
2019-05-05T09:02:45.511Z,86.30
2019-05-05T09:05:15.916Z,86.08
2019-05-05T09:07:46.290Z,85.80
2019-05-05T09:10:16.772Z,85.75
2019-05-05T09:12:47.190Z,86.32
2019-05-05T09:15:37.688Z,85.34
2019-05-05T09:18:19.900Z,86.01
2019-05-05T09:21:09.753Z,86.11
2019-05-05T09:29:43.966Z,85.35
2019-05-05T09:32:24.928Z,85.28
2019-05-05T09:34:55.336Z,84.75
2019-05-05T09:37:25.765Z,85.04
2019-05-05T09:43:18.084Z,85.04
2019-05-05T09:45:48.461Z,85.31
2019-05-05T09:48:18.846Z,84.52
2019-05-05T09:51:08.610Z,84.81
2019-05-05T09:53:38.960Z,83.86
2019-05-05T09:56:28.701Z,84.44
2019-05-05T09:59:18.476Z,84.54
2019-05-05T10:01:48.897Z,84.13
2019-05-05T10:04:19.312Z,84.95
2019-05-05T10:07:09.152Z,83.99
2019-05-05T10:09:39.508Z,84.42
2019-05-05T10:12:09.918Z,83.61
2019-05-05T10:14:59.710Z,83.41
2019-05-05T10:17:30.147Z,81.85
2019-05-05T10:20:00.523Z,82.50
2019-05-05T10:22:50.283Z,80.09
2019-05-05T10:28:28.416Z,81.01
2019-05-05T10:30:58.947Z,82.47
2019-05-05T10:36:35.682Z,83.21
2019-05-05T10:42:08.987Z,83.95
2019-05-05T10:44:39.466Z,84.76
2019-05-05T10:47:09.869Z,85.42
2019-05-05T10:49:40.200Z,84.28
2019-05-05T10:52:10.564Z,84.06
2019-05-05T10:54:44.646Z,84.54
2019-05-05T10:57:23.936Z,83.64
2019-05-05T10:59:54.312Z,84.82
2019-05-05T11:02:44.127Z,85.47
2019-05-05T11:05:14.738Z,85.56
2019-05-05T11:07:45.184Z,86.43
2019-05-05T11:13:37.126Z,86.18
2019-05-05T11:16:26.932Z,87.05
2019-05-05T11:18:57.313Z,87.75
2019-05-05T11:21:47.104Z,88.68
2019-05-05T11:24:17.500Z,90.15
2019-05-05T11:26:47.840Z,88.83
2019-05-05T11:29:18.301Z,89.67
2019-05-05T11:31:48.707Z,88.28
2019-05-05T11:34:38.572Z,87.67
2019-05-05T11:37:28.351Z,86.09
2019-05-05T11:39:58.707Z,86.81
2019-05-05T11:42:29.081Z,86.37
2019-05-05T11:44:59.487Z,86.39
2019-05-05T11:47:29.845Z,87.00
2019-05-05T11:50:00.349Z,88.12
2019-05-05T11:52:30.789Z,89.34
2019-05-05T11:55:20.612Z,90.26
2019-05-05T11:57:51.048Z,90.11
2019-05-05T12:00:40.810Z,90.56
2019-05-05T12:03:30.590Z,89.32
2019-05-05T12:06:01.039Z,90.90
2019-05-05T12:08:31.439Z,91.37
2019-05-05T12:11:04.592Z,92.12
2019-05-05T12:13:36.805Z,92.30
2019-05-05T12:16:45.475Z,92.95
2019-05-05T12:19:15.881Z,92.94
2019-05-05T12:21:46.269Z,93.09
2019-05-05T12:24:35.608Z,93.32
2019-05-05T12:27:24.901Z,92.97
2019-05-05T12:30:14.984Z,90.76
2019-05-05T12:33:04.930Z,90.50
2019-05-05T12:35:54.643Z,88.29
2019-05-05T12:38:25.063Z,88.32
2019-05-05T12:40:55.498Z,86.72
2019-05-05T12:43:45.260Z,87.02
2019-05-05T12:49:37.071Z,84.41
2019-05-05T12:52:26.874Z,85.10
2019-05-05T12:54:57.273Z,84.62
2019-05-05T12:57:27.697Z,84.61
2019-05-05T12:59:58.131Z,83.25
2019-05-05T13:02:47.883Z,84.25
2019-05-05T13:05:18.467Z,84.67
2019-05-05T13:07:48.985Z,84.22
2019-05-05T13:10:40.092Z,85.53
2019-05-05T13:13:10.620Z,86.80
2019-05-05T13:15:41.119Z,87.08
2019-05-05T13:18:11.637Z,87.39
2019-05-05T13:23:58.190Z,87.51
2019-05-05T13:26:47.560Z,87.95
2019-05-05T13:29:18.055Z,87.45
2019-05-05T13:31:50.395Z,87.37
2019-05-05T13:34:20.991Z,87.09
2019-05-05T13:36:51.740Z,86.43
2019-05-05T13:39:24.574Z,86.16
2019-05-05T13:42:13.999Z,84.60
2019-05-05T13:45:03.924Z,85.44
2019-05-05T13:47:34.554Z,85.65
2019-05-05T13:52:56.250Z,86.77
2019-05-05T13:55:26.895Z,88.30
2019-05-05T13:57:58.964Z,89.47
2019-05-05T14:00:29.297Z,89.11
2019-05-05T14:02:59.791Z,89.91
2019-05-05T14:05:30.267Z,90.03
2019-05-05T14:08:21.222Z,90.60
2019-05-05T14:10:51.685Z,91.34
2019-05-05T14:13:22.057Z,91.81
2019-05-05T14:15:54.487Z,89.67
2019-05-05T14:18:35.196Z,91.34
2019-05-05T14:21:24.960Z,91.10
2019-05-05T14:26:43.665Z,90.81
2019-05-05T14:31:58.946Z,90.57
2019-05-05T14:37:44.470Z,90.25
2019-05-05T14:40:28.277Z,89.90
2019-05-05T14:42:58.699Z,89.04
2019-05-05T14:45:48.455Z,87.76
2019-05-05T14:48:38.271Z,87.75
2019-05-05T14:51:28.039Z,88.75
2019-05-05T14:53:58.454Z,88.59
2019-05-05T14:56:48.229Z,90.00
2019-05-05T14:59:18.619Z,89.21
2019-05-05T15:01:49.098Z,89.70
2019-05-05T15:10:14.444Z,90.71
2019-05-05T15:12:54.719Z,89.74
2019-05-05T15:15:25.202Z,89.69
2019-05-05T15:18:15.076Z,89.34
2019-05-05T15:21:04.873Z,89.34
2019-05-05T15:23:35.248Z,89.64
2019-05-05T15:26:05.669Z,89.72
2019-05-05T15:28:59.305Z,89.86
2019-05-05T15:31:39.034Z,89.52
2019-05-05T15:34:09.530Z,89.30
2019-05-05T15:36:39.923Z,89.88
2019-05-05T15:42:45.304Z,87.83
2019-05-05T15:45:15.799Z,85.97
2019-05-05T15:47:46.245Z,85.62
2019-05-05T15:50:16.737Z,84.89
2019-05-05T15:52:47.131Z,84.21
2019-05-05T15:55:17.547Z,84.04
2019-05-05T15:57:47.984Z,84.69
2019-05-05T16:03:20.547Z,86.46
2019-05-05T16:06:10.347Z,87.14
2019-05-05T16:09:00.153Z,87.44
2019-05-05T16:11:30.548Z,87.31
2019-05-05T16:17:21.566Z,86.88
2019-05-05T16:23:14.358Z,85.86
2019-05-05T16:26:05.195Z,85.71
2019-05-05T16:28:35.589Z,84.81
2019-05-05T16:31:27.604Z,84.55
2019-05-05T16:34:08.542Z,84.96
2019-05-05T16:36:39.144Z,84.44
2019-05-05T16:39:28.924Z,84.17
2019-05-05T16:41:59.493Z,84.97
2019-05-05T16:44:49.307Z,84.66
2019-05-05T16:47:39.098Z,84.72
2019-05-05T16:50:28.895Z,84.72
2019-05-05T16:53:18.163Z,84.90
2019-05-05T16:56:07.424Z,83.52
2019-05-05T16:58:57.234Z,84.23
2019-05-05T17:01:27.623Z,84.09
2019-05-05T17:04:17.355Z,83.94
2019-05-05T17:07:07.197Z,84.02
2019-05-05T17:09:43.783Z,83.77
2019-05-05T17:12:26.144Z,83.70
2019-05-05T17:15:35.429Z,84.61
2019-05-05T17:18:44.799Z,85.34
2019-05-05T17:21:34.186Z,85.61
2019-05-05T17:24:04.601Z,85.51
2019-05-05T17:26:54.908Z,85.93
2019-05-05T17:29:36.826Z,84.68
2019-05-05T17:32:07.214Z,84.92
2019-05-05T17:34:37.603Z,84.81
2019-05-05T17:37:07.965Z,84.41
2019-05-05T17:42:45.638Z,84.53
2019-05-05T17:45:55.070Z,84.62
2019-05-05T17:48:50.799Z,85.14
2019-05-05T17:51:59.459Z,85.88
2019-05-05T17:54:48.779Z,86.61
2019-05-05T17:57:19.141Z,86.85
2019-05-05T18:00:09.151Z,85.78
2019-05-05T18:02:39.562Z,85.64
2019-05-05T18:05:09.974Z,85.59
2019-05-05T18:07:44.232Z,85.33
2019-05-05T18:10:34.441Z,85.56
2019-05-05T18:13:18.325Z,85.73
2019-05-05T18:16:07.629Z,85.83
2019-05-05T18:18:57.376Z,86.11
2019-05-05T18:21:47.163Z,85.71
2019-05-05T18:24:19.165Z,85.45
2019-05-05T18:26:49.572Z,85.92
2019-05-05T18:29:39.332Z,85.42
2019-05-05T18:32:29.098Z,85.35
2019-05-05T18:35:18.866Z,85.43
2019-05-05T18:38:08.686Z,85.06
2019-05-05T18:40:39.149Z,84.10
2019-05-05T18:46:13.551Z,85.37
2019-05-05T18:48:54.614Z,86.52
2019-05-05T18:51:44.350Z,86.09
2019-05-05T18:54:14.756Z,86.55
2019-05-05T18:56:45.109Z,87.21
2019-05-05T18:59:15.453Z,87.62
2019-05-05T19:02:24.453Z,87.51
2019-05-05T19:05:13.900Z,88.09
2019-05-05T19:08:24.332Z,88.63
2019-05-05T19:11:00.190Z,88.89
2019-05-05T19:13:30.654Z,89.47
2019-05-05T19:16:20.429Z,88.49
2019-05-05T19:19:10.288Z,89.02
2019-05-05T19:25:15.248Z,89.53
2019-05-05T19:30:31.039Z,89.06
2019-05-05T19:33:20.952Z,88.99
2019-05-05T19:35:53.731Z,89.14
2019-05-05T19:38:34.670Z,89.01
2019-05-05T19:41:17.778Z,88.37
2019-05-05T19:44:07.118Z,87.98
2019-05-05T19:46:56.494Z,87.99
2019-05-05T19:49:26.995Z,88.12
2019-05-05T19:52:16.864Z,86.96
2019-05-05T19:54:47.713Z,86.62
2019-05-05T19:57:18.232Z,86.87
2019-05-05T19:59:48.792Z,86.43
2019-05-05T20:02:19.153Z,86.77
2019-05-05T20:04:49.578Z,86.52
2019-05-05T20:07:20.029Z,86.81
2019-05-05T20:10:10.234Z,87.02
2019-05-05T20:13:00.052Z,86.38
2019-05-05T20:16:09.014Z,85.38
2019-05-05T20:18:39.523Z,85.24
2019-05-05T20:21:29.331Z,85.60
2019-05-05T20:24:19.119Z,84.43
2019-05-05T20:26:49.574Z,84.57
2019-05-05T20:29:39.373Z,84.81
2019-05-05T20:32:09.731Z,84.42
2019-05-05T20:37:54.244Z,83.13
2019-05-05T20:43:29.102Z,82.76
2019-05-05T20:49:36.772Z,83.49
2019-05-05T20:52:07.184Z,83.53
2019-05-05T20:54:57.042Z,83.16
2019-05-05T20:57:46.920Z,83.53
2019-05-05T21:03:20.836Z,83.34
2019-05-05T21:05:51.258Z,83.74
2019-05-05T21:08:41.071Z,83.94
2019-05-05T21:11:30.887Z,84.54
2019-05-05T21:14:07.699Z,82.99
2019-05-05T21:16:57.691Z,83.10
2019-05-05T21:19:28.280Z,84.18
2019-05-05T21:22:37.116Z,83.60
2019-05-05T21:25:23.927Z,83.79
2019-05-05T21:28:14.601Z,84.43
2019-05-05T21:30:56.889Z,84.35
2019-05-05T21:33:27.249Z,83.93
2019-05-05T21:35:57.675Z,84.27
2019-05-05T21:38:47.537Z,84.06
2019-05-05T21:41:37.486Z,84.18
2019-05-05T21:44:07.895Z,83.96
2019-05-05T21:46:59.288Z,83.68
2019-05-05T21:49:41.275Z,84.27
2019-05-05T21:55:43.944Z,84.46
2019-05-05T21:58:53.699Z,84.73
2019-05-05T22:04:15.537Z,84.13
2019-05-05T22:06:45.939Z,84.21
2019-05-05T22:09:16.339Z,84.62
2019-05-05T22:12:06.180Z,83.83
2019-05-05T22:14:36.545Z,83.04
2019-05-05T22:17:26.271Z,83.49
2019-05-05T22:20:36.762Z,82.48
2019-05-05T22:23:18.503Z,82.98
2019-05-05T22:26:08.313Z,83.47
2019-05-05T22:28:58.060Z,82.95
2019-05-05T22:31:47.947Z,82.19
2019-05-05T22:34:18.341Z,81.64
2019-05-05T22:37:09.728Z,82.53
2019-05-05T22:39:59.570Z,81.85
2019-05-05T22:42:29.936Z,82.51
2019-05-05T22:45:00.473Z,81.90
2019-05-05T22:47:30.814Z,81.47
2019-05-05T22:50:01.191Z,82.23
2019-05-05T22:52:50.965Z,82.22
2019-05-05T22:55:21.310Z,81.60
2019-05-05T22:57:51.757Z,81.30
2019-05-05T23:04:05.337Z,81.02
2019-05-05T23:07:14.523Z,81.93
2019-05-05T23:09:44.950Z,81.03
2019-05-05T23:12:35.126Z,80.09
2019-05-05T23:15:57.540Z,80.68
2019-05-05T23:18:47.415Z,80.38
2019-05-05T23:27:35.987Z,79.80
2019-05-05T23:30:06.766Z,79.88
2019-05-05T23:32:37.243Z,80.43
2019-05-05T23:35:07.686Z,80.38
2019-05-05T23:37:57.472Z,80.41
2019-05-05T23:43:30.488Z,81.41
2019-05-05T23:46:20.254Z,81.37
2019-05-05T23:48:53.692Z,81.76
2019-05-05T23:51:44.548Z,81.71
2019-05-05T23:54:34.316Z,81.91
2019-05-05T23:57:06.300Z,82.72
2019-05-05T23:59:36.677Z,83.51
